sensor_id;sensor_type;location;lat;lon;timestamp;pressure;altitude;pressure_sealevel;temperature;humidity
27358;BME280;14831;50.474;7.616;2023-08-06T00:00:57;97180;;;14.0;90.4
27358;BME280;14831;50.474;7.616;2023-08-06T00:05:57;97170;;;14.0;90.3
27358;BME280;14831;50.474;7.616;2023-08-06T00:10:57;97170;;;13.9;91.0
27358;BME280;14831;50.474;7.616;2023-08-06T00:16:07;97170;;;13.9;91.1
27358;BME280;14831;50.474;7.616;2023-08-06T00:20:57;97180;;;13.9;91.0
27358;BME280;14831;50.474;7.616;2023-08-06T00:25:57;97170;;;13.9;91.4
27358;BME280;14831;50.474;7.616;2023-08-06T00:30:57;97170;;;13.9;91.5
27358;BME280;14831;50.474;7.616;2023-08-06T00:35:57;97170;;;13.9;91.5
27358;BME280;14831;50.474;7.616;2023-08-06T00:40:57;97140;;;13.9;92.5
27358;BME280;14831;50.474;7.616;2023-08-06T00:45:57;97140;;;13.9;92.0
27358;BME280;14831;50.474;7.616;2023-08-06T00:50:57;97140;;;13.9;92.0
27358;BME280;14831;50.474;7.616;2023-08-06T00:55:57;97130;;;13.9;92.0
27358;BME280;14831;50.474;7.616;2023-08-06T01:00:57;97130;;;13.9;92.5
27358;BME280;14831;50.474;7.616;2023-08-06T01:05:57;97120;;;13.9;92.2
27358;BME280;14831;50.474;7.616;2023-08-06T01:11:01;97120;;;13.9;91.8
27358;BME280;14831;50.474;7.616;2023-08-06T01:15:57;97120;;;13.9;91.5
27358;BME280;14831;50.474;7.616;2023-08-06T01:20:57;97120;;;13.9;91.5
27358;BME280;14831;50.474;7.616;2023-08-06T01:25:59;97120;;;13.9;91.5
27358;BME280;14831;50.474;7.616;2023-08-06T01:30:57;97110;;;13.9;91.4
27358;BME280;14831;50.474;7.616;2023-08-06T01:35:57;97110;;;13.9;91.1
27358;BME280;14831;50.474;7.616;2023-08-06T01:40:57;97100;;;13.9;90.5
27358;BME280;14831;50.474;7.616;2023-08-06T01:45:57;97100;;;13.9;90.7
27358;BME280;14831;50.474;7.616;2023-08-06T01:50:57;97100;;;13.9;90.6
27358;BME280;14831;50.474;7.616;2023-08-06T01:55:57;97100;;;13.8;90.8
27358;BME280;14831;50.474;7.616;2023-08-06T02:00:57;97100;;;13.7;90.9
27358;BME280;14831;50.474;7.616;2023-08-06T02:05:57;97090;;;13.6;91.1
27358;BME280;14831;50.474;7.616;2023-08-06T02:10:57;97100;;;13.6;91.2
27358;BME280;14831;50.474;7.616;2023-08-06T02:15:57;97090;;;13.6;91.6
27358;BME280;14831;50.474;7.616;2023-08-06T02:20:57;97080;;;13.6;91.7
27358;BME280;14831;50.474;7.616;2023-08-06T02:25:58;97080;;;13.7;92.1
27358;BME280;14831;50.474;7.616;2023-08-06T02:30:57;97070;;;13.6;92.3
27358;BME280;14831;50.474;7.616;2023-08-06T02:35:58;97070;;;13.6;92.6
27358;BME280;14831;50.474;7.616;2023-08-06T02:40:57;97060;;;13.5;92.8
27358;BME280;14831;50.474;7.616;2023-08-06T02:45:58;97060;;;13.5;92.7
27358;BME280;14831;50.474;7.616;2023-08-06T02:50:57;97050;;;13.4;93.0
27358;BME280;14831;50.474;7.616;2023-08-06T02:55:57;97050;;;13.3;93.2
27358;BME280;14831;50.474;7.616;2023-08-06T03:00:58;97040;;;13.2;93.3
27358;BME280;14831;50.474;7.616;2023-08-06T03:05:57;97040;;;13.1;93.3
27358;BME280;14831;50.474;7.616;2023-08-06T03:10:57;97030;;;13.0;93.6
27358;BME280;14831;50.474;7.616;2023-08-06T03:15:57;97020;;;12.9;93.6
27358;BME280;14831;50.474;7.616;2023-08-06T03:20:57;97010;;;12.9;93.7
27358;BME280;14831;50.474;7.616;2023-08-06T03:26:00;97010;;;12.9;94.0
27358;BME280;14831;50.474;7.616;2023-08-06T03:30:58;97010;;;13.0;94.4
27358;BME280;14831;50.474;7.616;2023-08-06T03:35:57;97010;;;13.1;94.8
27358;BME280;14831;50.474;7.616;2023-08-06T03:40:57;97000;;;13.0;95.3
27358;BME280;14831;50.474;7.616;2023-08-06T03:45:57;97000;;;13.0;95.8
27358;BME280;14831;50.474;7.616;2023-08-06T03:50:57;97000;;;13.0;96.0
27358;BME280;14831;50.474;7.616;2023-08-06T03:55:57;96980;;;13.0;96.4
27358;BME280;14831;50.474;7.616;2023-08-06T04:00:57;96990;;;13.0;96.7
27358;BME280;14831;50.474;7.616;2023-08-06T04:05:57;96980;;;13.0;96.6
27358;BME280;14831;50.474;7.616;2023-08-06T04:10:57;96980;;;13.0;96.6
27358;BME280;14831;50.474;7.616;2023-08-06T04:16:00;96980;;;13.1;96.5
27358;BME280;14831;50.474;7.616;2023-08-06T04:20:57;96980;;;13.1;96.5
27358;BME280;14831;50.474;7.616;2023-08-06T04:25:57;96980;;;13.1;96.7
27358;BME280;14831;50.474;7.616;2023-08-06T04:30:58;96980;;;13.1;96.3
27358;BME280;14831;50.474;7.616;2023-08-06T04:35:57;96980;;;13.1;96.4
27358;BME280;14831;50.474;7.616;2023-08-06T04:40:57;96970;;;13.1;96.3
27358;BME280;14831;50.474;7.616;2023-08-06T04:45:57;96980;;;13.1;96.6
27358;BME280;14831;50.474;7.616;2023-08-06T04:50:57;96970;;;13.1;96.4
27358;BME280;14831;50.474;7.616;2023-08-06T04:55:57;96980;;;13.2;96.5
27358;BME280;14831;50.474;7.616;2023-08-06T05:00:57;96970;;;13.2;96.8
27358;BME280;14831;50.474;7.616;2023-08-06T05:05:57;96980;;;13.2;96.7
27358;BME280;14831;50.474;7.616;2023-08-06T05:10:57;96980;;;13.2;96.6
27358;BME280;14831;50.474;7.616;2023-08-06T05:15:57;96970;;;13.3;96.5
27358;BME280;14831;50.474;7.616;2023-08-06T05:20:57;96970;;;13.3;96.5
27358;BME280;14831;50.474;7.616;2023-08-06T05:25:57;96980;;;13.3;96.6
27358;BME280;14831;50.474;7.616;2023-08-06T05:30:57;96970;;;13.3;97.0
27358;BME280;14831;50.474;7.616;2023-08-06T05:35:57;96980;;;13.3;97.0
27358;BME280;14831;50.474;7.616;2023-08-06T05:40:57;96980;;;13.3;97.4
27358;BME280;14831;50.474;7.616;2023-08-06T05:45:57;96980;;;13.3;97.3
27358;BME280;14831;50.474;7.616;2023-08-06T05:50:57;96970;;;13.4;97.3
27358;BME280;14831;50.474;7.616;2023-08-06T05:55:57;96980;;;13.5;97.2
27358;BME280;14831;50.474;7.616;2023-08-06T06:00:57;96980;;;13.5;98.0
27358;BME280;14831;50.474;7.616;2023-08-06T06:05:57;96980;;;13.6;97.3
27358;BME280;14831;50.474;7.616;2023-08-06T06:10:57;96980;;;13.6;97.1
27358;BME280;14831;50.474;7.616;2023-08-06T06:15:57;96990;;;13.8;97.0
27358;BME280;14831;50.474;7.616;2023-08-06T06:20:57;96990;;;13.9;97.2
27358;BME280;14831;50.474;7.616;2023-08-06T06:25:57;96990;;;13.8;96.8
27358;BME280;14831;50.474;7.616;2023-08-06T06:30:59;97010;;;13.8;96.8
27358;BME280;14831;50.474;7.616;2023-08-06T06:35:57;97000;;;13.9;97.0
27358;BME280;14831;50.474;7.616;2023-08-06T06:40:57;97000;;;13.8;96.7
27358;BME280;14831;50.474;7.616;2023-08-06T06:45:57;97010;;;13.9;96.3
27358;BME280;14831;50.474;7.616;2023-08-06T06:50:57;97010;;;13.9;96.7
27358;BME280;14831;50.474;7.616;2023-08-06T06:56:01;97020;;;13.9;96.8
27358;BME280;14831;50.474;7.616;2023-08-06T07:00:57;97010;;;13.9;96.6
27358;BME280;14831;50.474;7.616;2023-08-06T07:05:57;97010;;;14.0;96.5
27358;BME280;14831;50.474;7.616;2023-08-06T07:11:01;97010;;;14.1;96.5
27358;BME280;14831;50.474;7.616;2023-08-06T07:15:57;97020;;;14.1;96.1
27358;BME280;14831;50.474;7.616;2023-08-06T07:20:57;97020;;;14.3;96.0
27358;BME280;14831;50.474;7.616;2023-08-06T07:25:57;97020;;;14.3;95.8
27358;BME280;14831;50.474;7.616;2023-08-06T07:30:57;97030;;;14.4;95.7
27358;BME280;14831;50.474;7.616;2023-08-06T07:35:57;97040;;;14.4;95.4
27358;BME280;14831;50.474;7.616;2023-08-06T07:40:57;97030;;;14.4;95.0
27358;BME280;14831;50.474;7.616;2023-08-06T07:45:57;97050;;;14.6;95.1
27358;BME280;14831;50.474;7.616;2023-08-06T07:50:57;97030;;;14.5;94.1
27358;BME280;14831;50.474;7.616;2023-08-06T07:55:57;97030;;;14.5;94.1
27358;BME280;14831;50.474;7.616;2023-08-06T08:00:57;97050;;;14.7;93.2
27358;BME280;14831;50.474;7.616;2023-08-06T08:05:57;97030;;;14.8;92.4
27358;BME280;14831;50.474;7.616;2023-08-06T08:10:57;97030;;;15.1;93.6
27358;BME280;14831;50.474;7.616;2023-08-06T08:15:57;97040;;;15.1;92.7
27358;BME280;14831;50.474;7.616;2023-08-06T08:20:57;97040;;;15.1;92.7
27358;BME280;14831;50.474;7.616;2023-08-06T08:25:57;97040;;;15.0;93.7
27358;BME280;14831;50.474;7.616;2023-08-06T08:30:57;97030;;;14.7;90.2
27358;BME280;14831;50.474;7.616;2023-08-06T08:35:57;97040;;;15.1;92.7
27358;BME280;14831;50.474;7.616;2023-08-06T08:40:57;97040;;;15.4;92.5
27358;BME280;14831;50.474;7.616;2023-08-06T08:45:57;97060;;;15.4;88.4
27358;BME280;14831;50.474;7.616;2023-08-06T08:50:57;97050;;;15.4;88.2
27358;BME280;14831;50.474;7.616;2023-08-06T08:55:57;97040;;;15.4;89.4
27358;BME280;14831;50.474;7.616;2023-08-06T09:00:57;97040;;;15.4;88.1
27358;BME280;14831;50.474;7.616;2023-08-06T09:05:57;97050;;;15.6;88.6
27358;BME280;14831;50.474;7.616;2023-08-06T09:10:57;97050;;;16.0;85.6
27358;BME280;14831;50.474;7.616;2023-08-06T09:15:57;97040;;;16.3;80.9
27358;BME280;14831;50.474;7.616;2023-08-06T09:20:57;97050;;;16.3;84.2
27358;BME280;14831;50.474;7.616;2023-08-06T09:25:57;97050;;;16.7;83.6
27358;BME280;14831;50.474;7.616;2023-08-06T09:30:57;97060;;;16.3;79.4
27358;BME280;14831;50.474;7.616;2023-08-06T09:35:57;97070;;;16.3;82.5
27358;BME280;14831;50.474;7.616;2023-08-06T09:40:57;97070;;;16.1;82.7
27358;BME280;14831;50.474;7.616;2023-08-06T09:45:57;97060;;;16.0;84.8
27358;BME280;14831;50.474;7.616;2023-08-06T09:50:57;97080;;;16.7;87.2
27358;BME280;14831;50.474;7.616;2023-08-06T09:55:57;97070;;;17.6;81.6
27358;BME280;14831;50.474;7.616;2023-08-06T10:00:57;97090;;;16.8;81.9
27358;BME280;14831;50.474;7.616;2023-08-06T10:05:57;97100;;;15.6;86.0
27358;BME280;14831;50.474;7.616;2023-08-06T10:10:57;97100;;;14.9;92.6
27358;BME280;14831;50.474;7.616;2023-08-06T10:15:57;97110;;;14.7;93.9
27358;BME280;14831;50.474;7.616;2023-08-06T10:20:57;97120;;;14.6;94.4
27358;BME280;14831;50.474;7.616;2023-08-06T10:25:57;97110;;;14.2;94.3
27358;BME280;14831;50.474;7.616;2023-08-06T10:30:57;97120;;;14.1;95.7
27358;BME280;14831;50.474;7.616;2023-08-06T10:36:00;97120;;;14.0;96.8
27358;BME280;14831;50.474;7.616;2023-08-06T10:41:00;97120;;;13.8;96.2
27358;BME280;14831;50.474;7.616;2023-08-06T10:45:57;97130;;;13.5;95.5
27358;BME280;14831;50.474;7.616;2023-08-06T10:50:59;97140;;;13.3;94.0
27358;BME280;14831;50.474;7.616;2023-08-06T10:55:57;97140;;;13.4;94.6
27358;BME280;14831;50.474;7.616;2023-08-06T11:00:57;97160;;;13.2;94.6
27358;BME280;14831;50.474;7.616;2023-08-06T11:05:57;97170;;;13.3;95.2
27358;BME280;14831;50.474;7.616;2023-08-06T11:11:07;97170;;;13.2;95.0
27358;BME280;14831;50.474;7.616;2023-08-06T11:15:57;97180;;;13.2;94.7
27358;BME280;14831;50.474;7.616;2023-08-06T11:20:58;97180;;;13.1;94.0
27358;BME280;14831;50.474;7.616;2023-08-06T11:25:57;97190;;;12.9;93.1
27358;BME280;14831;50.474;7.616;2023-08-06T11:30:57;97180;;;12.9;91.8
27358;BME280;14831;50.474;7.616;2023-08-06T11:35:57;97210;;;12.9;91.4
27358;BME280;14831;50.474;7.616;2023-08-06T11:40:57;97200;;;12.7;91.5
27358;BME280;14831;50.474;7.616;2023-08-06T11:45:57;97210;;;12.6;92.1
27358;BME280;14831;50.474;7.616;2023-08-06T11:50:57;97220;;;12.5;92.5
27358;BME280;14831;50.474;7.616;2023-08-06T11:55:57;97220;;;12.5;92.7
27358;BME280;14831;50.474;7.616;2023-08-06T12:00:57;97220;;;12.6;93.2
27358;BME280;14831;50.474;7.616;2023-08-06T12:05:57;97240;;;12.6;92.8
27358;BME280;14831;50.474;7.616;2023-08-06T12:10:57;97260;;;12.7;94.2
27358;BME280;14831;50.474;7.616;2023-08-06T12:15:57;97270;;;12.8;93.2
27358;BME280;14831;50.474;7.616;2023-08-06T12:20:57;97270;;;12.8;91.8
27358;BME280;14831;50.474;7.616;2023-08-06T12:25:57;97280;;;12.9;92.3
27358;BME280;14831;50.474;7.616;2023-08-06T12:30:57;97280;;;13.0;92.4
27358;BME280;14831;50.474;7.616;2023-08-06T12:35:57;97300;;;13.0;92.5
27358;BME280;14831;50.474;7.616;2023-08-06T12:40:57;97320;;;13.0;93.4
27358;BME280;14831;50.474;7.616;2023-08-06T12:45:57;97300;;;13.0;93.1
27358;BME280;14831;50.474;7.616;2023-08-06T12:50:57;97310;;;13.0;92.5
27358;BME280;14831;50.474;7.616;2023-08-06T12:55:57;97320;;;13.2;92.8
27358;BME280;14831;50.474;7.616;2023-08-06T13:00:57;97330;;;13.2;91.9
27358;BME280;14831;50.474;7.616;2023-08-06T13:05:57;97330;;;13.1;93.6
27358;BME280;14831;50.474;7.616;2023-08-06T13:10:57;97340;;;13.1;94.1
27358;BME280;14831;50.474;7.616;2023-08-06T13:15:57;97340;;;13.1;95.3
27358;BME280;14831;50.474;7.616;2023-08-06T13:20:57;97350;;;13.0;93.5
27358;BME280;14831;50.474;7.616;2023-08-06T13:25:57;97370;;;13.1;94.4
27358;BME280;14831;50.474;7.616;2023-08-06T13:30:57;97360;;;13.2;95.3
27358;BME280;14831;50.474;7.616;2023-08-06T13:35:57;97370;;;13.2;94.8
27358;BME280;14831;50.474;7.616;2023-08-06T13:40:57;97370;;;13.3;94.9
27358;BME280;14831;50.474;7.616;2023-08-06T13:45:57;97360;;;13.3;94.9
27358;BME280;14831;50.474;7.616;2023-08-06T13:50:57;97370;;;13.3;94.6
27358;BME280;14831;50.474;7.616;2023-08-06T13:55:57;97370;;;13.2;94.5
27358;BME280;14831;50.474;7.616;2023-08-06T14:00:57;97370;;;13.2;94.4
27358;BME280;14831;50.474;7.616;2023-08-06T14:05:57;97370;;;13.2;94.9
27358;BME280;14831;50.474;7.616;2023-08-06T14:10:57;97380;;;13.1;93.9
27358;BME280;14831;50.474;7.616;2023-08-06T14:15:57;97400;;;13.1;93.3
27358;BME280;14831;50.474;7.616;2023-08-06T14:20:57;97400;;;13.2;93.8
27358;BME280;14831;50.474;7.616;2023-08-06T14:25:57;97400;;;13.1;93.6
27358;BME280;14831;50.474;7.616;2023-08-06T14:30:57;97420;;;13.1;93.7
27358;BME280;14831;50.474;7.616;2023-08-06T14:35:57;97430;;;13.1;94.2
27358;BME280;14831;50.474;7.616;2023-08-06T14:40:57;97420;;;13.1;94.9
27358;BME280;14831;50.474;7.616;2023-08-06T14:45:57;97430;;;13.0;94.6
27358;BME280;14831;50.474;7.616;2023-08-06T14:50:57;97430;;;13.0;94.1
27358;BME280;14831;50.474;7.616;2023-08-06T14:55:57;97440;;;12.9;94.1
27358;BME280;14831;50.474;7.616;2023-08-06T15:00:57;97450;;;12.9;95.0
27358;BME280;14831;50.474;7.616;2023-08-06T15:05:57;97450;;;12.9;95.0
27358;BME280;14831;50.474;7.616;2023-08-06T15:10:57;97460;;;13.0;95.1
27358;BME280;14831;50.474;7.616;2023-08-06T15:15:57;97480;;;12.9;93.8
27358;BME280;14831;50.474;7.616;2023-08-06T15:20:57;97470;;;12.9;94.5
27358;BME280;14831;50.474;7.616;2023-08-06T15:25:57;97480;;;13.0;94.8
27358;BME280;14831;50.474;7.616;2023-08-06T15:30:57;97490;;;13.0;95.1
27358;BME280;14831;50.474;7.616;2023-08-06T15:35:57;97490;;;13.1;96.0
27358;BME280;14831;50.474;7.616;2023-08-06T15:40:57;97490;;;13.1;95.7
27358;BME280;14831;50.474;7.616;2023-08-06T15:45:57;97490;;;13.0;95.3
27358;BME280;14831;50.474;7.616;2023-08-06T15:50:57;97490;;;13.1;95.9
27358;BME280;14831;50.474;7.616;2023-08-06T15:55:57;97500;;;12.9;96.4
27358;BME280;14831;50.474;7.616;2023-08-06T16:00:57;97490;;;12.9;96.2
27358;BME280;14831;50.474;7.616;2023-08-06T16:05:57;97500;;;12.8;96.4
27358;BME280;14831;50.474;7.616;2023-08-06T16:10:57;97500;;;12.8;95.8
27358;BME280;14831;50.474;7.616;2023-08-06T16:15:57;97510;;;12.9;96.2
27358;BME280;14831;50.474;7.616;2023-08-06T16:20:57;97510;;;12.8;95.9
27358;BME280;14831;50.474;7.616;2023-08-06T16:25:57;97510;;;12.8;96.3
27358;BME280;14831;50.474;7.616;2023-08-06T16:30:57;97510;;;12.7;96.3
27358;BME280;14831;50.474;7.616;2023-08-06T16:35:57;97520;;;12.6;96.4
27358;BME280;14831;50.474;7.616;2023-08-06T16:40:57;97530;;;12.6;96.5
27358;BME280;14831;50.474;7.616;2023-08-06T16:45:57;97530;;;12.6;96.1
27358;BME280;14831;50.474;7.616;2023-08-06T16:50:58;97530;;;12.7;96.4
27358;BME280;14831;50.474;7.616;2023-08-06T16:55:57;97540;;;12.6;96.5
27358;BME280;14831;50.474;7.616;2023-08-06T17:00:57;97550;;;12.6;96.0
27358;BME280;14831;50.474;7.616;2023-08-06T17:05:57;97540;;;12.6;96.4
27358;BME280;14831;50.474;7.616;2023-08-06T17:10:57;97540;;;12.6;96.5
27358;BME280;14831;50.474;7.616;2023-08-06T17:15:57;97550;;;12.5;96.1
27358;BME280;14831;50.474;7.616;2023-08-06T17:20:58;97550;;;12.5;96.2
27358;BME280;14831;50.474;7.616;2023-08-06T17:25:57;97560;;;12.5;96.7
27358;BME280;14831;50.474;7.616;2023-08-06T17:30:57;97560;;;12.5;96.2
27358;BME280;14831;50.474;7.616;2023-08-06T17:35:57;97570;;;12.4;96.2
27358;BME280;14831;50.474;7.616;2023-08-06T17:40:57;97550;;;12.4;96.2
27358;BME280;14831;50.474;7.616;2023-08-06T17:45:57;97560;;;12.4;96.1
27358;BME280;14831;50.474;7.616;2023-08-06T17:50:57;97550;;;12.4;96.2
27358;BME280;14831;50.474;7.616;2023-08-06T17:55:57;97570;;;12.3;96.8
27358;BME280;14831;50.474;7.616;2023-08-06T18:00:57;97570;;;12.3;96.4
27358;BME280;14831;50.474;7.616;2023-08-06T18:05:57;97570;;;12.2;96.8
27358;BME280;14831;50.474;7.616;2023-08-06T18:10:57;97570;;;12.2;96.7
27358;BME280;14831;50.474;7.616;2023-08-06T18:15:57;97570;;;12.2;96.9
27358;BME280;14831;50.474;7.616;2023-08-06T18:20:57;97580;;;12.2;96.7
27358;BME280;14831;50.474;7.616;2023-08-06T18:25:57;97580;;;12.2;97.0
27358;BME280;14831;50.474;7.616;2023-08-06T18:30:57;97580;;;12.1;96.9
27358;BME280;14831;50.474;7.616;2023-08-06T18:35:57;97580;;;12.1;97.3
27358;BME280;14831;50.474;7.616;2023-08-06T18:40:57;97580;;;12.1;97.3
27358;BME280;14831;50.474;7.616;2023-08-06T18:45:57;97600;;;12.1;97.3
27358;BME280;14831;50.474;7.616;2023-08-06T18:50:57;97600;;;12.1;97.5
27358;BME280;14831;50.474;7.616;2023-08-06T18:55:57;97610;;;12.1;97.2
27358;BME280;14831;50.474;7.616;2023-08-06T19:00:57;97610;;;12.1;97.2
27358;BME280;14831;50.474;7.616;2023-08-06T19:05:58;97630;;;12.1;97.9
27358;BME280;14831;50.474;7.616;2023-08-06T19:10:57;97610;;;12.1;98.1
27358;BME280;14831;50.474;7.616;2023-08-06T19:15:57;97610;;;12.1;98.1
27358;BME280;14831;50.474;7.616;2023-08-06T19:20:57;97620;;;12.0;98.1
27358;BME280;14831;50.474;7.616;2023-08-06T19:25:58;97630;;;12.0;98.1
27358;BME280;14831;50.474;7.616;2023-08-06T19:30:57;97640;;;12.0;98.1
27358;BME280;14831;50.474;7.616;2023-08-06T19:35:57;97630;;;12.0;97.9
27358;BME280;14831;50.474;7.616;2023-08-06T19:41:05;97650;;;12.0;97.2
27358;BME280;14831;50.474;7.616;2023-08-06T19:45:57;97660;;;12.0;97.8
27358;BME280;14831;50.474;7.616;2023-08-06T19:50:57;97670;;;11.9;97.6
27358;BME280;14831;50.474;7.616;2023-08-06T19:55:57;97670;;;11.9;98.0
27358;BME280;14831;50.474;7.616;2023-08-06T20:00:57;97670;;;11.8;98.0
27358;BME280;14831;50.474;7.616;2023-08-06T20:05:58;97670;;;11.7;97.7
27358;BME280;14831;50.474;7.616;2023-08-06T20:10:57;97680;;;11.7;97.0
27358;BME280;14831;50.474;7.616;2023-08-06T20:15:57;97680;;;11.6;96.8
27358;BME280;14831;50.474;7.616;2023-08-06T20:20:57;97690;;;11.5;97.1
27358;BME280;14831;50.474;7.616;2023-08-06T20:25:57;97700;;;11.5;97.4
27358;BME280;14831;50.474;7.616;2023-08-06T20:30:57;97690;;;11.4;97.2
27358;BME280;14831;50.474;7.616;2023-08-06T20:35:57;97710;;;11.4;96.9
27358;BME280;14831;50.474;7.616;2023-08-06T20:40:57;97700;;;11.4;96.7
27358;BME280;14831;50.474;7.616;2023-08-06T20:45:57;97710;;;11.4;96.8
27358;BME280;14831;50.474;7.616;2023-08-06T20:50:57;97720;;;11.4;96.6
27358;BME280;14831;50.474;7.616;2023-08-06T20:55:58;97730;;;11.4;96.5
27358;BME280;14831;50.474;7.616;2023-08-06T21:00:58;97740;;;11.4;96.5
27358;BME280;14831;50.474;7.616;2023-08-06T21:05:58;97740;;;11.4;96.3
27358;BME280;14831;50.474;7.616;2023-08-06T21:10:58;97760;;;11.4;96.4
27358;BME280;14831;50.474;7.616;2023-08-06T21:15:57;97740;;;11.4;96.6
27358;BME280;14831;50.474;7.616;2023-08-06T21:20:57;97750;;;11.4;96.6
27358;BME280;14831;50.474;7.616;2023-08-06T21:25:57;97760;;;11.4;96.1
27358;BME280;14831;50.474;7.616;2023-08-06T21:30:58;97760;;;11.3;95.7
27358;BME280;14831;50.474;7.616;2023-08-06T21:35:59;97770;;;11.3;95.7
27358;BME280;14831;50.474;7.616;2023-08-06T21:41:00;97770;;;11.3;96.5
27358;BME280;14831;50.474;7.616;2023-08-06T21:45:59;97780;;;11.3;95.4
27358;BME280;14831;50.474;7.616;2023-08-06T21:50:59;97770;;;11.3;96.3
27358;BME280;14831;50.474;7.616;2023-08-06T21:55:57;97780;;;11.3;96.1
27358;BME280;14831;50.474;7.616;2023-08-06T22:00:57;97780;;;11.3;96.2
27358;BME280;14831;50.474;7.616;2023-08-06T22:05:57;97790;;;11.3;95.9
27358;BME280;14831;50.474;7.616;2023-08-06T22:10:57;97780;;;11.2;96.3
27358;BME280;14831;50.474;7.616;2023-08-06T22:15:57;97780;;;11.2;95.5
27358;BME280;14831;50.474;7.616;2023-08-06T22:20:57;97780;;;11.2;96.2
27358;BME280;14831;50.474;7.616;2023-08-06T22:25:57;97770;;;11.3;95.9
27358;BME280;14831;50.474;7.616;2023-08-06T22:30:57;97770;;;11.2;96.7
27358;BME280;14831;50.474;7.616;2023-08-06T22:35:57;97770;;;11.1;96.5
27358;BME280;14831;50.474;7.616;2023-08-06T22:40:57;97770;;;11.1;97.1
27358;BME280;14831;50.474;7.616;2023-08-06T22:45:57;97780;;;11.0;96.9
27358;BME280;14831;50.474;7.616;2023-08-06T22:50:57;97780;;;11.0;96.6
27358;BME280;14831;50.474;7.616;2023-08-06T22:55:57;97780;;;11.0;96.6
27358;BME280;14831;50.474;7.616;2023-08-06T23:00:57;97790;;;11.0;96.6
27358;BME280;14831;50.474;7.616;2023-08-06T23:05:57;97770;;;11.0;96.1
27358;BME280;14831;50.474;7.616;2023-08-06T23:10:57;97780;;;11.0;95.8
27358;BME280;14831;50.474;7.616;2023-08-06T23:15:57;97770;;;10.9;96.8
27358;BME280;14831;50.474;7.616;2023-08-06T23:20:57;97790;;;10.9;97.0
27358;BME280;14831;50.474;7.616;2023-08-06T23:25:57;97800;;;10.9;97.1
27358;BME280;14831;50.474;7.616;2023-08-06T23:30:57;97780;;;10.8;97.0
27358;BME280;14831;50.474;7.616;2023-08-06T23:35:57;97790;;;10.8;97.4
27358;BME280;14831;50.474;7.616;2023-08-06T23:40:57;97800;;;10.8;97.0
27358;BME280;14831;50.474;7.616;2023-08-06T23:45:57;97780;;;10.7;97.2
27358;BME280;14831;50.474;7.616;2023-08-06T23:50:57;97780;;;10.7;96.9
27358;BME280;14831;50.474;7.616;2023-08-06T23:55:57;97790;;;10.7;97.5
